sensor_id;sensor_type;location;lat;lon;timestamp;P1;durP1;ratioP1;P2;durP2;ratioP2
39994;SDS011;25686;51.908;10.418;2022-10-30T00:01:23;18.08;;;3.42;;
39994;SDS011;25686;51.908;10.418;2022-10-30T00:03:24;18.83;;;3.05;;
39994;SDS011;25686;51.908;10.418;2022-10-30T00:05:25;16.00;;;3.20;;
39994;SDS011;25686;51.908;10.418;2022-10-30T00:07:26;12.23;;;3.15;;
39994;SDS011;25686;51.908;10.418;2022-10-30T00:09:27;13.93;;;3.35;;
39994;SDS011;25686;51.908;10.418;2022-10-30T00:11:28;14.15;;;3.63;;
39994;SDS011;25686;51.908;10.418;2022-10-30T00:13:29;13.38;;;3.42;;
39994;SDS011;25686;51.908;10.418;2022-10-30T00:15:30;17.58;;;3.67;;
39994;SDS011;25686;51.908;10.418;2022-10-30T00:17:31;13.82;;;3.60;;
39994;SDS011;25686;51.908;10.418;2022-10-30T00:19:32;13.60;;;3.30;;
39994;SDS011;25686;51.908;10.418;2022-10-30T00:21:33;15.50;;;3.80;;
39994;SDS011;25686;51.908;10.418;2022-10-30T00:23:34;12.95;;;3.13;;
39994;SDS011;25686;51.908;10.418;2022-10-30T00:25:35;14.00;;;3.50;;
39994;SDS011;25686;51.908;10.418;2022-10-30T00:27:36;15.07;;;3.50;;
39994;SDS011;25686;51.908;10.418;2022-10-30T00:29:37;16.98;;;3.05;;
39994;SDS011;25686;51.908;10.418;2022-10-30T00:31:38;20.38;;;3.67;;
39994;SDS011;25686;51.908;10.418;2022-10-30T00:33:39;11.32;;;3.10;;
39994;SDS011;25686;51.908;10.418;2022-10-30T00:35:46;13.32;;;2.97;;
39994;SDS011;25686;51.908;10.418;2022-10-30T00:37:48;14.55;;;3.03;;
39994;SDS011;25686;51.908;10.418;2022-10-30T00:39:49;13.63;;;3.20;;
39994;SDS011;25686;51.908;10.418;2022-10-30T00:41:50;14.68;;;3.10;;
39994;SDS011;25686;51.908;10.418;2022-10-30T00:43:51;13.82;;;3.40;;
39994;SDS011;25686;51.908;10.418;2022-10-30T00:45:52;13.38;;;3.30;;
39994;SDS011;25686;51.908;10.418;2022-10-30T00:47:57;17.35;;;3.40;;
39994;SDS011;25686;51.908;10.418;2022-10-30T00:52:04;9.85;;;3.38;;
39994;SDS011;25686;51.908;10.418;2022-10-30T00:54:06;11.35;;;3.20;;
39994;SDS011;25686;51.908;10.418;2022-10-30T00:56:07;17.70;;;3.22;;
39994;SDS011;25686;51.908;10.418;2022-10-30T00:58:11;18.10;;;3.38;;
39994;SDS011;25686;51.908;10.418;2022-10-30T01:00:14;12.15;;;3.13;;
39994;SDS011;25686;51.908;10.418;2022-10-30T01:02:15;12.48;;;3.58;;
39994;SDS011;25686;51.908;10.418;2022-10-30T01:04:16;15.70;;;3.70;;
39994;SDS011;25686;51.908;10.418;2022-10-30T01:06:18;14.73;;;3.22;;
39994;SDS011;25686;51.908;10.418;2022-10-30T01:08:19;10.27;;;2.92;;
39994;SDS011;25686;51.908;10.418;2022-10-30T01:10:20;12.95;;;3.50;;
39994;SDS011;25686;51.908;10.418;2022-10-30T01:12:22;19.85;;;2.97;;
39994;SDS011;25686;51.908;10.418;2022-10-30T01:14:22;16.35;;;3.70;;
39994;SDS011;25686;51.908;10.418;2022-10-30T01:29:48;13.93;;;3.03;;
39994;SDS011;25686;51.908;10.418;2022-10-30T01:38:16;15.38;;;3.25;;
39994;SDS011;25686;51.908;10.418;2022-10-30T01:40:19;15.70;;;3.50;;
39994;SDS011;25686;51.908;10.418;2022-10-30T01:44:39;21.00;;;3.92;;
39994;SDS011;25686;51.908;10.418;2022-10-30T01:46:41;14.18;;;3.15;;
39994;SDS011;25686;51.908;10.418;2022-10-30T01:57:25;13.82;;;3.08;;
39994;SDS011;25686;51.908;10.418;2022-10-30T01:59:36;13.65;;;3.50;;
39994;SDS011;25686;51.908;10.418;2022-10-30T02:01:37;15.50;;;3.35;;
39994;SDS011;25686;51.908;10.418;2022-10-30T02:03:39;15.23;;;3.45;;
39994;SDS011;25686;51.908;10.418;2022-10-30T02:05:45;11.43;;;3.38;;
39994;SDS011;25686;51.908;10.418;2022-10-30T02:07:47;10.90;;;2.80;;
39994;SDS011;25686;51.908;10.418;2022-10-30T02:09:49;16.65;;;3.30;;
39994;SDS011;25686;51.908;10.418;2022-10-30T02:11:51;21.45;;;3.38;;
39994;SDS011;25686;51.908;10.418;2022-10-30T02:13:53;9.10;;;3.05;;
39994;SDS011;25686;51.908;10.418;2022-10-30T02:15:55;14.93;;;3.40;;
39994;SDS011;25686;51.908;10.418;2022-10-30T02:17:57;20.90;;;3.60;;
39994;SDS011;25686;51.908;10.418;2022-10-30T02:19:58;15.10;;;3.55;;
39994;SDS011;25686;51.908;10.418;2022-10-30T02:21:59;14.55;;;3.40;;
39994;SDS011;25686;51.908;10.418;2022-10-30T02:24:00;14.02;;;3.63;;
39994;SDS011;25686;51.908;10.418;2022-10-30T02:26:01;13.20;;;3.63;;
39994;SDS011;25686;51.908;10.418;2022-10-30T02:28:03;15.30;;;3.38;;
39994;SDS011;25686;51.908;10.418;2022-10-30T02:30:04;14.50;;;3.70;;
39994;SDS011;25686;51.908;10.418;2022-10-30T02:32:05;19.35;;;3.50;;
39994;SDS011;25686;51.908;10.418;2022-10-30T02:34:06;19.98;;;3.75;;
39994;SDS011;25686;51.908;10.418;2022-10-30T02:36:07;13.63;;;3.17;;
39994;SDS011;25686;51.908;10.418;2022-10-30T02:38:08;18.13;;;3.38;;
39994;SDS011;25686;51.908;10.418;2022-10-30T02:40:09;13.05;;;3.33;;
39994;SDS011;25686;51.908;10.418;2022-10-30T02:42:11;13.63;;;3.60;;
39994;SDS011;25686;51.908;10.418;2022-10-30T02:44:12;13.07;;;3.72;;
39994;SDS011;25686;51.908;10.418;2022-10-30T02:46:13;13.75;;;3.58;;
39994;SDS011;25686;51.908;10.418;2022-10-30T02:48:14;11.00;;;3.42;;
39994;SDS011;25686;51.908;10.418;2022-10-30T02:50:15;13.82;;;3.30;;
39994;SDS011;25686;51.908;10.418;2022-10-30T02:52:16;14.90;;;3.55;;
39994;SDS011;25686;51.908;10.418;2022-10-30T02:54:17;12.07;;;3.38;;
39994;SDS011;25686;51.908;10.418;2022-10-30T02:56:18;13.73;;;3.20;;
39994;SDS011;25686;51.908;10.418;2022-10-30T02:58:19;14.95;;;3.58;;
39994;SDS011;25686;51.908;10.418;2022-10-30T03:00:19;15.65;;;3.63;;
39994;SDS011;25686;51.908;10.418;2022-10-30T03:02:20;14.23;;;3.50;;
39994;SDS011;25686;51.908;10.418;2022-10-30T03:04:21;12.60;;;3.22;;
39994;SDS011;25686;51.908;10.418;2022-10-30T03:06:22;17.00;;;3.92;;
39994;SDS011;25686;51.908;10.418;2022-10-30T03:08:23;13.50;;;3.45;;
39994;SDS011;25686;51.908;10.418;2022-10-30T03:10:24;13.73;;;3.58;;
39994;SDS011;25686;51.908;10.418;2022-10-30T03:12:25;15.25;;;3.60;;
39994;SDS011;25686;51.908;10.418;2022-10-30T03:14:26;13.75;;;3.55;;
39994;SDS011;25686;51.908;10.418;2022-10-30T03:16:27;14.15;;;3.58;;
39994;SDS011;25686;51.908;10.418;2022-10-30T03:18:29;13.95;;;3.70;;
39994;SDS011;25686;51.908;10.418;2022-10-30T03:20:30;14.40;;;3.70;;
39994;SDS011;25686;51.908;10.418;2022-10-30T03:22:31;13.13;;;3.97;;
39994;SDS011;25686;51.908;10.418;2022-10-30T03:24:32;15.23;;;3.35;;
39994;SDS011;25686;51.908;10.418;2022-10-30T03:26:33;15.18;;;3.90;;
39994;SDS011;25686;51.908;10.418;2022-10-30T03:28:34;11.93;;;3.70;;
39994;SDS011;25686;51.908;10.418;2022-10-30T03:30:35;10.55;;;3.40;;
39994;SDS011;25686;51.908;10.418;2022-10-30T03:32:36;11.80;;;3.33;;
39994;SDS011;25686;51.908;10.418;2022-10-30T03:34:37;17.58;;;4.38;;
39994;SDS011;25686;51.908;10.418;2022-10-30T03:36:38;20.73;;;3.80;;
39994;SDS011;25686;51.908;10.418;2022-10-30T03:38:39;14.55;;;3.65;;
39994;SDS011;25686;51.908;10.418;2022-10-30T03:40:40;17.23;;;4.47;;
39994;SDS011;25686;51.908;10.418;2022-10-30T03:42:41;12.88;;;3.95;;
39994;SDS011;25686;51.908;10.418;2022-10-30T03:44:42;14.45;;;4.20;;
39994;SDS011;25686;51.908;10.418;2022-10-30T03:46:42;14.15;;;4.05;;
39994;SDS011;25686;51.908;10.418;2022-10-30T03:48:47;19.08;;;3.70;;
39994;SDS011;25686;51.908;10.418;2022-10-30T03:50:48;13.93;;;3.67;;
39994;SDS011;25686;51.908;10.418;2022-10-30T03:52:49;14.38;;;3.60;;
39994;SDS011;25686;51.908;10.418;2022-10-30T03:54:50;16.40;;;4.20;;
39994;SDS011;25686;51.908;10.418;2022-10-30T03:56:50;14.15;;;3.65;;
39994;SDS011;25686;51.908;10.418;2022-10-30T03:58:51;16.23;;;4.35;;
39994;SDS011;25686;51.908;10.418;2022-10-30T04:00:52;14.65;;;3.78;;
39994;SDS011;25686;51.908;10.418;2022-10-30T04:02:53;12.77;;;3.70;;
39994;SDS011;25686;51.908;10.418;2022-10-30T04:04:54;18.98;;;4.13;;
39994;SDS011;25686;51.908;10.418;2022-10-30T04:06:55;12.95;;;3.50;;
39994;SDS011;25686;51.908;10.418;2022-10-30T04:08:56;14.38;;;4.18;;
39994;SDS011;25686;51.908;10.418;2022-10-30T04:10:57;11.80;;;3.78;;
39994;SDS011;25686;51.908;10.418;2022-10-30T04:13:02;19.65;;;4.10;;
39994;SDS011;25686;51.908;10.418;2022-10-30T04:15:04;17.05;;;4.03;;
39994;SDS011;25686;51.908;10.418;2022-10-30T04:17:05;15.43;;;4.30;;
39994;SDS011;25686;51.908;10.418;2022-10-30T04:19:06;12.75;;;3.75;;
39994;SDS011;25686;51.908;10.418;2022-10-30T04:21:07;12.82;;;3.85;;
39994;SDS011;25686;51.908;10.418;2022-10-30T04:23:09;13.75;;;4.03;;
39994;SDS011;25686;51.908;10.418;2022-10-30T04:25:12;11.75;;;3.30;;
39994;SDS011;25686;51.908;10.418;2022-10-30T04:27:13;13.63;;;3.80;;
39994;SDS011;25686;51.908;10.418;2022-10-30T04:29:14;17.98;;;4.70;;
39994;SDS011;25686;51.908;10.418;2022-10-30T04:31:15;10.82;;;3.83;;
39994;SDS011;25686;51.908;10.418;2022-10-30T04:33:15;18.42;;;4.05;;
39994;SDS011;25686;51.908;10.418;2022-10-30T04:35:17;15.40;;;4.35;;
39994;SDS011;25686;51.908;10.418;2022-10-30T04:37:18;12.90;;;3.63;;
39994;SDS011;25686;51.908;10.418;2022-10-30T04:39:19;15.02;;;3.90;;
39994;SDS011;25686;51.908;10.418;2022-10-30T04:41:20;17.13;;;3.78;;
39994;SDS011;25686;51.908;10.418;2022-10-30T04:43:21;14.25;;;3.85;;
39994;SDS011;25686;51.908;10.418;2022-10-30T04:45:22;10.75;;;3.67;;
39994;SDS011;25686;51.908;10.418;2022-10-30T04:47:23;19.55;;;4.45;;
39994;SDS011;25686;51.908;10.418;2022-10-30T04:49:24;15.90;;;3.60;;
39994;SDS011;25686;51.908;10.418;2022-10-30T04:51:25;16.00;;;3.90;;
39994;SDS011;25686;51.908;10.418;2022-10-30T04:53:26;18.38;;;3.90;;
39994;SDS011;25686;51.908;10.418;2022-10-30T04:55:27;18.45;;;3.72;;
39994;SDS011;25686;51.908;10.418;2022-10-30T04:57:29;10.15;;;3.63;;
39994;SDS011;25686;51.908;10.418;2022-10-30T04:59:33;12.60;;;4.00;;
39994;SDS011;25686;51.908;10.418;2022-10-30T05:01:34;22.48;;;4.78;;
39994;SDS011;25686;51.908;10.418;2022-10-30T05:03:35;21.00;;;4.03;;
39994;SDS011;25686;51.908;10.418;2022-10-30T05:05:36;21.33;;;4.20;;
39994;SDS011;25686;51.908;10.418;2022-10-30T05:07:37;15.38;;;4.07;;
39994;SDS011;25686;51.908;10.418;2022-10-30T05:09:38;12.93;;;3.90;;
39994;SDS011;25686;51.908;10.418;2022-10-30T05:11:39;16.60;;;4.30;;
39994;SDS011;25686;51.908;10.418;2022-10-30T05:13:40;17.02;;;4.00;;
39994;SDS011;25686;51.908;10.418;2022-10-30T05:15:41;13.95;;;4.05;;
39994;SDS011;25686;51.908;10.418;2022-10-30T05:17:42;18.63;;;4.28;;
39994;SDS011;25686;51.908;10.418;2022-10-30T05:19:42;20.70;;;4.20;;
39994;SDS011;25686;51.908;10.418;2022-10-30T05:21:43;15.10;;;4.18;;
39994;SDS011;25686;51.908;10.418;2022-10-30T05:23:44;15.95;;;3.72;;
39994;SDS011;25686;51.908;10.418;2022-10-30T05:25:45;16.55;;;4.78;;
39994;SDS011;25686;51.908;10.418;2022-10-30T05:27:46;13.18;;;4.30;;
39994;SDS011;25686;51.908;10.418;2022-10-30T05:29:47;15.15;;;3.95;;
39994;SDS011;25686;51.908;10.418;2022-10-30T05:31:48;14.45;;;3.83;;
39994;SDS011;25686;51.908;10.418;2022-10-30T05:33:49;15.88;;;4.32;;
39994;SDS011;25686;51.908;10.418;2022-10-30T05:35:50;15.65;;;4.25;;
39994;SDS011;25686;51.908;10.418;2022-10-30T05:37:51;15.43;;;4.50;;
39994;SDS011;25686;51.908;10.418;2022-10-30T05:39:52;17.08;;;4.35;;
39994;SDS011;25686;51.908;10.418;2022-10-30T05:41:53;18.45;;;3.78;;
39994;SDS011;25686;51.908;10.418;2022-10-30T05:43:54;13.30;;;4.15;;
39994;SDS011;25686;51.908;10.418;2022-10-30T05:45:55;13.35;;;4.03;;
39994;SDS011;25686;51.908;10.418;2022-10-30T05:47:57;19.20;;;4.55;;
39994;SDS011;25686;51.908;10.418;2022-10-30T05:49:58;21.05;;;4.30;;
39994;SDS011;25686;51.908;10.418;2022-10-30T05:51:59;10.90;;;3.80;;
39994;SDS011;25686;51.908;10.418;2022-10-30T05:54:00;16.25;;;4.30;;
39994;SDS011;25686;51.908;10.418;2022-10-30T05:56:01;15.23;;;4.13;;
39994;SDS011;25686;51.908;10.418;2022-10-30T05:58:02;14.82;;;3.92;;
39994;SDS011;25686;51.908;10.418;2022-10-30T06:00:04;17.63;;;4.47;;
39994;SDS011;25686;51.908;10.418;2022-10-30T06:02:05;19.67;;;4.20;;
39994;SDS011;25686;51.908;10.418;2022-10-30T06:04:07;14.30;;;3.92;;
39994;SDS011;25686;51.908;10.418;2022-10-30T06:06:08;14.98;;;4.20;;
39994;SDS011;25686;51.908;10.418;2022-10-30T06:08:09;14.18;;;4.35;;
39994;SDS011;25686;51.908;10.418;2022-10-30T06:10:09;15.35;;;4.25;;
39994;SDS011;25686;51.908;10.418;2022-10-30T06:12:10;20.35;;;4.38;;
39994;SDS011;25686;51.908;10.418;2022-10-30T06:14:11;18.23;;;4.07;;
39994;SDS011;25686;51.908;10.418;2022-10-30T06:16:12;14.32;;;4.53;;
39994;SDS011;25686;51.908;10.418;2022-10-30T06:18:13;14.13;;;4.50;;
39994;SDS011;25686;51.908;10.418;2022-10-30T06:20:15;13.57;;;4.53;;
39994;SDS011;25686;51.908;10.418;2022-10-30T06:22:16;15.95;;;4.40;;
39994;SDS011;25686;51.908;10.418;2022-10-30T06:24:17;16.63;;;4.40;;
39994;SDS011;25686;51.908;10.418;2022-10-30T06:26:18;18.95;;;4.30;;
39994;SDS011;25686;51.908;10.418;2022-10-30T06:28:19;13.85;;;4.68;;
39994;SDS011;25686;51.908;10.418;2022-10-30T06:30:20;16.65;;;4.55;;
39994;SDS011;25686;51.908;10.418;2022-10-30T06:32:21;14.82;;;4.45;;
39994;SDS011;25686;51.908;10.418;2022-10-30T06:34:22;18.98;;;4.88;;
39994;SDS011;25686;51.908;10.418;2022-10-30T06:36:23;20.40;;;4.40;;
39994;SDS011;25686;51.908;10.418;2022-10-30T06:38:24;18.55;;;4.93;;
39994;SDS011;25686;51.908;10.418;2022-10-30T06:40:26;19.77;;;4.95;;
39994;SDS011;25686;51.908;10.418;2022-10-30T06:42:27;14.57;;;4.40;;
39994;SDS011;25686;51.908;10.418;2022-10-30T06:44:28;21.15;;;4.70;;
39994;SDS011;25686;51.908;10.418;2022-10-30T06:46:28;13.00;;;4.32;;
39994;SDS011;25686;51.908;10.418;2022-10-30T06:48:30;16.40;;;4.35;;
39994;SDS011;25686;51.908;10.418;2022-10-30T06:50:31;14.10;;;4.85;;
39994;SDS011;25686;51.908;10.418;2022-10-30T06:52:32;15.60;;;4.72;;
39994;SDS011;25686;51.908;10.418;2022-10-30T06:54:33;13.70;;;4.60;;
39994;SDS011;25686;51.908;10.418;2022-10-30T06:56:34;18.67;;;4.32;;
39994;SDS011;25686;51.908;10.418;2022-10-30T06:58:35;11.63;;;4.07;;
39994;SDS011;25686;51.908;10.418;2022-10-30T07:00:38;17.63;;;4.93;;
39994;SDS011;25686;51.908;10.418;2022-10-30T07:02:39;16.52;;;4.32;;
39994;SDS011;25686;51.908;10.418;2022-10-30T07:04:39;17.52;;;4.18;;
39994;SDS011;25686;51.908;10.418;2022-10-30T07:06:40;17.38;;;4.72;;
39994;SDS011;25686;51.908;10.418;2022-10-30T07:08:41;12.38;;;4.25;;
39994;SDS011;25686;51.908;10.418;2022-10-30T07:10:42;14.98;;;4.28;;
39994;SDS011;25686;51.908;10.418;2022-10-30T07:12:49;19.95;;;4.40;;
39994;SDS011;25686;51.908;10.418;2022-10-30T07:14:50;16.02;;;4.47;;
39994;SDS011;25686;51.908;10.418;2022-10-30T07:16:52;15.82;;;4.30;;
39994;SDS011;25686;51.908;10.418;2022-10-30T07:18:53;19.42;;;4.63;;
39994;SDS011;25686;51.908;10.418;2022-10-30T07:20:55;12.82;;;4.40;;
39994;SDS011;25686;51.908;10.418;2022-10-30T07:22:56;15.63;;;4.78;;
39994;SDS011;25686;51.908;10.418;2022-10-30T07:24:57;19.98;;;4.20;;
39994;SDS011;25686;51.908;10.418;2022-10-30T07:26:58;17.70;;;5.00;;
39994;SDS011;25686;51.908;10.418;2022-10-30T07:28:59;14.95;;;4.57;;
39994;SDS011;25686;51.908;10.418;2022-10-30T07:31:00;16.17;;;4.13;;
39994;SDS011;25686;51.908;10.418;2022-10-30T07:33:02;22.45;;;4.60;;
39994;SDS011;25686;51.908;10.418;2022-10-30T07:35:04;18.27;;;4.60;;
39994;SDS011;25686;51.908;10.418;2022-10-30T07:37:05;15.13;;;4.20;;
39994;SDS011;25686;51.908;10.418;2022-10-30T07:39:05;13.20;;;4.75;;
39994;SDS011;25686;51.908;10.418;2022-10-30T07:41:06;21.65;;;4.82;;
39994;SDS011;25686;51.908;10.418;2022-10-30T07:43:07;20.02;;;4.60;;
39994;SDS011;25686;51.908;10.418;2022-10-30T07:45:12;17.38;;;4.25;;
39994;SDS011;25686;51.908;10.418;2022-10-30T07:47:13;19.88;;;4.50;;
39994;SDS011;25686;51.908;10.418;2022-10-30T07:49:14;11.10;;;3.80;;
39994;SDS011;25686;51.908;10.418;2022-10-30T07:51:15;17.60;;;4.15;;
39994;SDS011;25686;51.908;10.418;2022-10-30T07:53:16;13.20;;;4.35;;
39994;SDS011;25686;51.908;10.418;2022-10-30T07:55:17;15.85;;;4.45;;
39994;SDS011;25686;51.908;10.418;2022-10-30T07:57:18;16.15;;;4.13;;
39994;SDS011;25686;51.908;10.418;2022-10-30T07:59:19;12.50;;;3.75;;
39994;SDS011;25686;51.908;10.418;2022-10-30T08:01:19;22.30;;;4.40;;
39994;SDS011;25686;51.908;10.418;2022-10-30T08:03:20;16.80;;;4.50;;
39994;SDS011;25686;51.908;10.418;2022-10-30T08:05:21;16.98;;;4.28;;
39994;SDS011;25686;51.908;10.418;2022-10-30T08:07:22;17.83;;;4.90;;
39994;SDS011;25686;51.908;10.418;2022-10-30T08:09:23;18.77;;;4.60;;
39994;SDS011;25686;51.908;10.418;2022-10-30T08:11:24;18.00;;;4.78;;
39994;SDS011;25686;51.908;10.418;2022-10-30T08:13:25;16.10;;;4.22;;
39994;SDS011;25686;51.908;10.418;2022-10-30T08:15:26;12.15;;;4.57;;
39994;SDS011;25686;51.908;10.418;2022-10-30T08:17:27;19.42;;;4.60;;
39994;SDS011;25686;51.908;10.418;2022-10-30T08:19:28;13.32;;;4.20;;
39994;SDS011;25686;51.908;10.418;2022-10-30T08:21:29;18.60;;;4.75;;
39994;SDS011;25686;51.908;10.418;2022-10-30T08:23:30;14.98;;;4.03;;
39994;SDS011;25686;51.908;10.418;2022-10-30T08:25:31;17.13;;;4.25;;
39994;SDS011;25686;51.908;10.418;2022-10-30T08:27:32;15.82;;;4.00;;
39994;SDS011;25686;51.908;10.418;2022-10-30T08:29:33;18.60;;;4.80;;
39994;SDS011;25686;51.908;10.418;2022-10-30T08:31:33;16.20;;;4.50;;
39994;SDS011;25686;51.908;10.418;2022-10-30T08:33:34;15.65;;;4.82;;
39994;SDS011;25686;51.908;10.418;2022-10-30T08:35:35;12.05;;;4.07;;
39994;SDS011;25686;51.908;10.418;2022-10-30T08:37:36;18.10;;;4.82;;
39994;SDS011;25686;51.908;10.418;2022-10-30T08:39:37;11.75;;;4.22;;
39994;SDS011;25686;51.908;10.418;2022-10-30T08:41:38;12.73;;;4.03;;
39994;SDS011;25686;51.908;10.418;2022-10-30T08:43:39;21.13;;;5.00;;
39994;SDS011;25686;51.908;10.418;2022-10-30T08:45:40;17.20;;;4.68;;
39994;SDS011;25686;51.908;10.418;2022-10-30T08:47:41;22.60;;;5.47;;
39994;SDS011;25686;51.908;10.418;2022-10-30T08:49:42;13.48;;;4.22;;
39994;SDS011;25686;51.908;10.418;2022-10-30T08:51:43;18.80;;;4.28;;
39994;SDS011;25686;51.908;10.418;2022-10-30T08:53:46;13.95;;;4.40;;
39994;SDS011;25686;51.908;10.418;2022-10-30T08:55:49;18.50;;;4.50;;
39994;SDS011;25686;51.908;10.418;2022-10-30T08:57:50;18.30;;;4.78;;
39994;SDS011;25686;51.908;10.418;2022-10-30T08:59:51;12.00;;;4.10;;
39994;SDS011;25686;51.908;10.418;2022-10-30T09:01:52;19.85;;;4.70;;
39994;SDS011;25686;51.908;10.418;2022-10-30T09:03:53;16.67;;;4.70;;
39994;SDS011;25686;51.908;10.418;2022-10-30T09:05:56;15.32;;;4.70;;
39994;SDS011;25686;51.908;10.418;2022-10-30T09:07:57;17.90;;;4.35;;
39994;SDS011;25686;51.908;10.418;2022-10-30T09:09:59;15.73;;;4.20;;
39994;SDS011;25686;51.908;10.418;2022-10-30T09:12:00;13.88;;;4.72;;
39994;SDS011;25686;51.908;10.418;2022-10-30T09:14:01;13.90;;;4.28;;
39994;SDS011;25686;51.908;10.418;2022-10-30T09:16:02;16.38;;;4.78;;
39994;SDS011;25686;51.908;10.418;2022-10-30T09:18:03;17.85;;;4.60;;
39994;SDS011;25686;51.908;10.418;2022-10-30T09:20:04;18.75;;;4.50;;
39994;SDS011;25686;51.908;10.418;2022-10-30T09:22:05;14.05;;;4.47;;
39994;SDS011;25686;51.908;10.418;2022-10-30T09:24:06;16.52;;;4.50;;
39994;SDS011;25686;51.908;10.418;2022-10-30T09:26:07;16.23;;;4.53;;
39994;SDS011;25686;51.908;10.418;2022-10-30T09:28:08;16.98;;;4.43;;
39994;SDS011;25686;51.908;10.418;2022-10-30T09:30:09;17.23;;;4.20;;
39994;SDS011;25686;51.908;10.418;2022-10-30T09:32:10;10.85;;;4.53;;
39994;SDS011;25686;51.908;10.418;2022-10-30T09:34:11;14.27;;;4.25;;
39994;SDS011;25686;51.908;10.418;2022-10-30T09:36:12;14.15;;;4.40;;
39994;SDS011;25686;51.908;10.418;2022-10-30T09:38:13;17.00;;;4.70;;
39994;SDS011;25686;51.908;10.418;2022-10-30T09:40:33;18.02;;;4.75;;
39994;SDS011;25686;51.908;10.418;2022-10-30T09:42:39;21.77;;;4.70;;
39994;SDS011;25686;51.908;10.418;2022-10-30T09:46:46;14.48;;;4.30;;
39994;SDS011;25686;51.908;10.418;2022-10-30T09:50:55;14.60;;;4.20;;
39994;SDS011;25686;51.908;10.418;2022-10-30T09:53:11;14.18;;;4.18;;
39994;SDS011;25686;51.908;10.418;2022-10-30T09:57:24;10.98;;;4.38;;
39994;SDS011;25686;51.908;10.418;2022-10-30T10:05:55;17.25;;;4.32;;
39994;SDS011;25686;51.908;10.418;2022-10-30T10:07:58;21.73;;;5.07;;
39994;SDS011;25686;51.908;10.418;2022-10-30T10:10:03;17.63;;;4.18;;
39994;SDS011;25686;51.908;10.418;2022-10-30T10:12:08;19.67;;;4.53;;
39994;SDS011;25686;51.908;10.418;2022-10-30T10:14:17;15.68;;;4.10;;
39994;SDS011;25686;51.908;10.418;2022-10-30T10:16:26;15.80;;;4.85;;
39994;SDS011;25686;51.908;10.418;2022-10-30T10:18:29;14.38;;;4.32;;
39994;SDS011;25686;51.908;10.418;2022-10-30T10:20:34;19.08;;;4.80;;
39994;SDS011;25686;51.908;10.418;2022-10-30T10:22:48;16.98;;;4.15;;
39994;SDS011;25686;51.908;10.418;2022-10-30T10:24:50;16.75;;;4.18;;
39994;SDS011;25686;51.908;10.418;2022-10-30T10:33:29;18.98;;;4.88;;
39994;SDS011;25686;51.908;10.418;2022-10-30T10:38:08;17.63;;;4.65;;
39994;SDS011;25686;51.908;10.418;2022-10-30T10:51:14;14.50;;;4.80;;
39994;SDS011;25686;51.908;10.418;2022-10-30T10:53:19;21.95;;;4.65;;
39994;SDS011;25686;51.908;10.418;2022-10-30T10:55:23;15.27;;;3.83;;
39994;SDS011;25686;51.908;10.418;2022-10-30T10:57:34;13.45;;;4.18;;
39994;SDS011;25686;51.908;10.418;2022-10-30T10:59:40;14.32;;;4.55;;
39994;SDS011;25686;51.908;10.418;2022-10-30T11:01:43;17.48;;;4.72;;
39994;SDS011;25686;51.908;10.418;2022-10-30T11:05:51;18.60;;;4.40;;
39994;SDS011;25686;51.908;10.418;2022-10-30T11:07:52;14.73;;;3.95;;
39994;SDS011;25686;51.908;10.418;2022-10-30T11:09:54;15.85;;;4.47;;
39994;SDS011;25686;51.908;10.418;2022-10-30T11:11:55;16.05;;;4.25;;
39994;SDS011;25686;51.908;10.418;2022-10-30T11:13:56;15.18;;;4.28;;
39994;SDS011;25686;51.908;10.418;2022-10-30T11:16:03;15.70;;;4.18;;
39994;SDS011;25686;51.908;10.418;2022-10-30T11:18:09;17.08;;;4.53;;
39994;SDS011;25686;51.908;10.418;2022-10-30T11:20:15;10.85;;;4.28;;
39994;SDS011;25686;51.908;10.418;2022-10-30T11:22:23;19.85;;;4.80;;
39994;SDS011;25686;51.908;10.418;2022-10-30T11:24:29;18.10;;;4.45;;
39994;SDS011;25686;51.908;10.418;2022-10-30T11:26:31;17.00;;;4.28;;
39994;SDS011;25686;51.908;10.418;2022-10-30T11:28:34;14.75;;;4.40;;
39994;SDS011;25686;51.908;10.418;2022-10-30T11:30:36;12.82;;;4.65;;
39994;SDS011;25686;51.908;10.418;2022-10-30T11:32:37;20.65;;;5.03;;
39994;SDS011;25686;51.908;10.418;2022-10-30T11:34:38;19.48;;;4.28;;
39994;SDS011;25686;51.908;10.418;2022-10-30T11:36:39;18.00;;;4.35;;
39994;SDS011;25686;51.908;10.418;2022-10-30T11:38:40;17.80;;;4.55;;
39994;SDS011;25686;51.908;10.418;2022-10-30T11:40:45;15.18;;;4.47;;
39994;SDS011;25686;51.908;10.418;2022-10-30T11:42:53;14.18;;;4.35;;
39994;SDS011;25686;51.908;10.418;2022-10-30T11:44:55;13.73;;;4.43;;
39994;SDS011;25686;51.908;10.418;2022-10-30T11:46:56;16.73;;;4.75;;
39994;SDS011;25686;51.908;10.418;2022-10-30T11:48:57;18.23;;;4.65;;
39994;SDS011;25686;51.908;10.418;2022-10-30T11:50:59;16.58;;;4.25;;
39994;SDS011;25686;51.908;10.418;2022-10-30T11:53:01;15.45;;;4.68;;
39994;SDS011;25686;51.908;10.418;2022-10-30T11:59:18;20.27;;;4.57;;
39994;SDS011;25686;51.908;10.418;2022-10-30T12:01:23;13.70;;;5.00;;
39994;SDS011;25686;51.908;10.418;2022-10-30T12:03:26;18.27;;;4.88;;
39994;SDS011;25686;51.908;10.418;2022-10-30T12:05:29;17.08;;;4.30;;
39994;SDS011;25686;51.908;10.418;2022-10-30T12:07:31;21.17;;;4.43;;
39994;SDS011;25686;51.908;10.418;2022-10-30T12:09:40;14.73;;;4.18;;
39994;SDS011;25686;51.908;10.418;2022-10-30T12:11:41;12.18;;;4.72;;
39994;SDS011;25686;51.908;10.418;2022-10-30T12:13:43;24.65;;;4.68;;
39994;SDS011;25686;51.908;10.418;2022-10-30T12:15:44;16.48;;;4.10;;
39994;SDS011;25686;51.908;10.418;2022-10-30T12:17:52;16.00;;;4.80;;
39994;SDS011;25686;51.908;10.418;2022-10-30T12:19:54;13.38;;;4.68;;
39994;SDS011;25686;51.908;10.418;2022-10-30T12:21:56;11.75;;;4.82;;
39994;SDS011;25686;51.908;10.418;2022-10-30T12:23:58;16.42;;;4.93;;
39994;SDS011;25686;51.908;10.418;2022-10-30T12:26:09;16.52;;;4.70;;
39994;SDS011;25686;51.908;10.418;2022-10-30T12:28:14;16.83;;;4.80;;
39994;SDS011;25686;51.908;10.418;2022-10-30T12:30:16;23.38;;;4.25;;
39994;SDS011;25686;51.908;10.418;2022-10-30T12:32:18;20.08;;;4.30;;
39994;SDS011;25686;51.908;10.418;2022-10-30T12:36:30;12.50;;;3.75;;
39994;SDS011;25686;51.908;10.418;2022-10-30T12:38:35;15.50;;;3.72;;
39994;SDS011;25686;51.908;10.418;2022-10-30T12:40:40;15.10;;;4.65;;
39994;SDS011;25686;51.908;10.418;2022-10-30T12:43:02;19.48;;;4.53;;
39994;SDS011;25686;51.908;10.418;2022-10-30T12:45:06;25.40;;;4.72;;
39994;SDS011;25686;51.908;10.418;2022-10-30T12:47:19;16.77;;;5.00;;
39994;SDS011;25686;51.908;10.418;2022-10-30T12:49:26;14.82;;;4.07;;
39994;SDS011;25686;51.908;10.418;2022-10-30T12:53:36;15.60;;;4.80;;
39994;SDS011;25686;51.908;10.418;2022-10-30T12:55:39;10.82;;;4.28;;
39994;SDS011;25686;51.908;10.418;2022-10-30T13:04:35;19.45;;;4.45;;
39994;SDS011;25686;51.908;10.418;2022-10-30T13:06:41;17.45;;;4.60;;
39994;SDS011;25686;51.908;10.418;2022-10-30T13:10:49;14.18;;;4.13;;
39994;SDS011;25686;51.908;10.418;2022-10-30T13:12:54;20.08;;;4.35;;
39994;SDS011;25686;51.908;10.418;2022-10-30T13:15:01;16.92;;;3.58;;
39994;SDS011;25686;51.908;10.418;2022-10-30T13:17:03;15.10;;;3.97;;
39994;SDS011;25686;51.908;10.418;2022-10-30T13:19:04;18.55;;;3.90;;